Time;durP1;ratioP1;P1;durP2;ratioP2;P2;SDS_P1;SDS_P2;PMS_P1;PMS_P2;Temp;Humidity;BMP_temperature;BMP_pressure;BME280_temperature;BME280_humidity;BME280_pressure;Samples;Min_cycle;Max_cycle;Signal;HPM_P1;HPM_P2
2022/03/10 00:01:49;;;;;;;;;;;;;;;;;;5105334;28;1942;-74
2022/03/10 00:04:15;;;;;;;;;;;;;;;;;;5088112;28;1351;-74
2022/03/10 00:06:40;;;;;;;;;;;;;;;;;;5106376;28;1210;-74
2022/03/10 00:09:05;;;;;;;;;;;;;;;;;;5085901;28;1237;-74
2022/03/10 00:11:30;;;;;;;;;;;;;;;;;;5085163;28;1230;-73
2022/03/10 00:13:55;;;;;;;;;;;;;;;;;;5082809;28;1279;-74
2022/03/10 00:16:21;;;;;;;;;;;;;;;;;;5106530;28;1159;-74
2022/03/10 00:18:50;;;;;;;;;;;;;;;;;;5104806;28;1226;-74
2022/03/10 00:21:15;;;;;;;;;;;;;;;;;;5088139;28;1956;-74
2022/03/10 00:23:40;;;;;;;;;;;;;;;;;;5083902;28;1226;-74
2022/03/10 00:26:05;;;;;;;;;;;;;;;;;;5066003;28;1187;-74
2022/03/10 00:28:31;;;;;;;;;;;;;;;;;;5064149;28;1517;-74
2022/03/10 00:30:56;;;;;;;;;;;;;;;;;;5045157;28;1175;-74
2022/03/10 00:33:22;;;;;;;;;;;;;;;;;;5066950;28;1339;-75
2022/03/10 00:35:50;;;;;;;;;;;;;;;;;;5084300;28;1041;-75
2022/03/10 00:38:16;;;;;;;;;;;;;;;;;;5066740;28;1309;-75
2022/03/10 00:40:41;;;;;;;;;;;;;;;;;;5083772;28;1194;-74
2022/03/10 00:43:13;;;;;;;;;;;;;;;;;;5062067;28;1906;-75
2022/03/10 00:45:38;;;;;;;;;;;;;;;;;;5079706;28;1270;-74
2022/03/10 00:48:04;;;;;;;;;;;;;;;;;;5103415;28;1084;-75
2022/03/10 00:50:29;;;;;;;;;;;;;;;;;;5104225;28;1294;-75
2022/03/10 00:52:55;;;;;;;;;;;;;;;;;;5103586;28;1167;-75
2022/03/10 00:55:20;;;;;;;;;;;;;;;;;;5069298;28;1260;-74
2022/03/10 00:57:47;;;;;;;;;;;;;;;;;;5092308;28;1139;-75
2022/03/10 01:00:13;;;;;;;;;;;;;;;;;;5063356;28;1239;-75
2022/03/10 01:02:39;;;;;;;;;;;;;;;;;;5065896;28;1894;-74
2022/03/10 01:05:05;;;;;;;;;;;;;;;;;;5082355;28;1077;-74
2022/03/10 01:07:30;;;;;;;;;;;;;;;;;;5084059;28;1393;-75
2022/03/10 01:09:56;;;;;;;;;;;;;;;;;;5081434;28;1148;-75
2022/03/10 01:12:21;;;;;;;;;;;;;;;;;;5102551;28;1143;-74
2022/03/10 01:14:46;;;;;;;;;;;;;;;;;;5084409;28;1140;-74
2022/03/10 01:17:12;;;;;;;;;;;;;;;;;;5085274;28;1136;-74
2022/03/10 01:19:37;;;;;;;;;;;;;;;;;;5086540;28;1132;-74
2022/03/10 01:22:03;;;;;;;;;;;;;;;;;;5103777;28;1980;-74
2022/03/10 01:24:28;;;;;;;;;;;;;;;;;;5086708;28;1021;-74
2022/03/10 01:26:58;;;;;;;;;;;;;;;;;;5068268;28;1325;-74
2022/03/10 01:29:23;;;;;;;;;;;;;;;;;;5068331;28;1320;-74
2022/03/10 01:31:48;;;;;;;;;;;;;;;;;;5086544;28;1155;-74
2022/03/10 01:34:13;;;;;;;;;;;;;;;;;;5069113;28;1299;-74
2022/03/10 01:36:39;;;;;;;;;;;;;;;;;;5086450;28;1400;-73
2022/03/10 01:39:04;;;;;;;;;;;;;;;;;;5084713;28;1127;-74
2022/03/10 01:41:32;;;;;;;;;;;;;;;;;;5067890;28;1954;-74
2022/03/10 01:43:58;;;;;;;;;;;;;;;;;;5064483;28;1351;-74
2022/03/10 01:46:23;;;;;;;;;;;;;;;;;;5106048;28;1184;-74
2022/03/10 01:48:49;;;;;;;;;;;;;;;;;;5086399;28;1175;-75
2022/03/10 01:51:14;;;;;;;;;;;;;;;;;;5084981;28;1274;-74
2022/03/10 01:53:41;;;;;;;;;;;;;;;;;;5069420;28;1293;-74
2022/03/10 01:56:06;;;;;;;;;;;;;;;;;;5063455;28;1313;-74
2022/03/10 01:58:32;;;;;;;;;;;;;;;;;;5101071;28;1108;-74
2022/03/10 02:00:57;;;;;;;;;;;;;;;;;;5083557;28;1333;-75
2022/03/10 02:03:23;;;;;;;;;;;;;;;;;;5070124;28;1963;-74
2022/03/10 02:05:48;;;;;;;;;;;;;;;;;;5069721;28;1335;-74
2022/03/10 02:10:58;;;;;;;;;;;;;;;;;;5104553;28;1004;-74
2022/03/10 02:13:23;;;;;;;;;;;;;;;;;;5082360;28;1147;-74
2022/03/10 02:18:46;;;;;;;;;;;;;;;;;;5038864;28;1698;-73
2022/03/10 02:21:11;;;;;;;;;;;;;;;;;;5072246;28;1381;-74
2022/03/10 02:23:36;;;;;;;;;;;;;;;;;;5089751;28;1906;-74
2022/03/10 02:26:02;;;;;;;;;;;;;;;;;;5088705;28;1163;-74
2022/03/10 02:28:27;;;;;;;;;;;;;;;;;;5085435;28;1185;-74
2022/03/10 02:30:53;;;;;;;;;;;;;;;;;;5107012;28;1159;-73
2022/03/10 02:33:18;;;;;;;;;;;;;;;;;;5072357;28;1461;-75
2022/03/10 02:35:44;;;;;;;;;;;;;;;;;;5089688;28;1341;-74
2022/03/10 02:38:15;;;;;;;;;;;;;;;;;;5106392;28;1369;-75
2022/03/10 02:40:41;;;;;;;;;;;;;;;;;;5107341;28;1104;-75
2022/03/10 02:43:07;;;;;;;;;;;;;;;;;;5087806;28;1959;-75
2022/03/10 02:45:32;;;;;;;;;;;;;;;;;;5084570;28;1346;-73
2022/03/10 02:48:01;;;;;;;;;;;;;;;;;;5073790;28;1204;-74
2022/03/10 02:50:26;;;;;;;;;;;;;;;;;;5088955;28;1321;-74
2022/03/10 02:52:51;;;;;;;;;;;;;;;;;;5108458;28;1234;-75
2022/03/10 02:55:16;;;;;;;;;;;;;;;;;;5072049;28;1316;-75
2022/03/10 02:57:42;;;;;;;;;;;;;;;;;;5070632;28;1249;-76
2022/03/10 03:00:08;;;;;;;;;;;;;;;;;;5065454;28;1196;-75
2022/03/10 03:02:33;;;;;;;;;;;;;;;;;;5107758;28;1894;-75
2022/03/10 03:05:02;;;;;;;;;;;;;;;;;;5088619;28;1275;-74
2022/03/10 03:07:28;;;;;;;;;;;;;;;;;;5107906;28;1331;-74
2022/03/10 03:09:53;;;;;;;;;;;;;;;;;;5089271;28;1223;-75
2022/03/10 03:12:18;;;;;;;;;;;;;;;;;;5068750;28;1191;-75
2022/03/10 03:14:44;;;;;;;;;;;;;;;;;;5109302;28;1187;-75
2022/03/10 03:17:09;;;;;;;;;;;;;;;;;;5089244;28;1191;-75
2022/03/10 03:19:34;;;;;;;;;;;;;;;;;;5089693;28;1151;-75
2022/03/10 03:22:01;;;;;;;;;;;;;;;;;;5070528;28;1950;-76
2022/03/10 03:24:26;;;;;;;;;;;;;;;;;;5083380;28;1199;-74
2022/03/10 03:26:52;;;;;;;;;;;;;;;;;;5050207;28;1215;-76
2022/03/10 03:29:17;;;;;;;;;;;;;;;;;;5083024;28;1171;-75
2022/03/10 03:31:42;;;;;;;;;;;;;;;;;;5066454;28;1147;-75
2022/03/10 03:34:11;;;;;;;;;;;;;;;;;;5048456;28;1237;-75
2022/03/10 03:36:40;;;;;;;;;;;;;;;;;;5066033;28;1237;-73
2022/03/10 03:39:05;;;;;;;;;;;;;;;;;;5066424;28;1164;-74
2022/03/10 03:41:31;;;;;;;;;;;;;;;;;;5075203;28;1917;-75
2022/03/10 03:43:56;;;;;;;;;;;;;;;;;;5086278;28;1373;-76
2022/03/10 03:46:21;;;;;;;;;;;;;;;;;;5067121;28;1367;-74
2022/03/10 03:48:47;;;;;;;;;;;;;;;;;;5087502;28;1292;-74
2022/03/10 03:51:12;;;;;;;;;;;;;;;;;;5085767;28;1304;-74
2022/03/10 03:53:37;;;;;;;;;;;;;;;;;;5104682;28;1096;-74
2022/03/10 03:56:04;;;;;;;;;;;;;;;;;;5068726;28;1281;-73
2022/03/10 03:58:29;;;;;;;;;;;;;;;;;;5083763;28;1254;-74
2022/03/10 04:00:54;;;;;;;;;;;;;;;;;;5068747;28;1281;-75
2022/03/10 04:03:19;;;;;;;;;;;;;;;;;;5085453;28;1893;-75
2022/03/10 04:05:45;;;;;;;;;;;;;;;;;;5086973;28;1615;-75
2022/03/10 04:08:10;;;;;;;;;;;;;;;;;;5086027;28;1294;-75
2022/03/10 04:10:36;;;;;;;;;;;;;;;;;;5099333;28;1159;-75
2022/03/10 04:13:03;;;;;;;;;;;;;;;;;;5065071;28;1243;-75
2022/03/10 04:15:29;;;;;;;;;;;;;;;;;;5061244;28;1260;-75
2022/03/10 04:17:55;;;;;;;;;;;;;;;;;;5067115;28;1313;-75
2022/03/10 04:20:20;;;;;;;;;;;;;;;;;;5066391;28;1105;-75
2022/03/10 04:22:46;;;;;;;;;;;;;;;;;;5066531;28;1913;-75
2022/03/10 04:25:11;;;;;;;;;;;;;;;;;;5098976;28;1171;-75
2022/03/10 04:27:36;;;;;;;;;;;;;;;;;;5102936;28;1182;-75
2022/03/10 04:30:08;;;;;;;;;;;;;;;;;;5083324;28;1089;-75
2022/03/10 04:32:44;;;;;;;;;;;;;;;;;;5110047;28;1104;-75
2022/03/10 04:35:10;;;;;;;;;;;;;;;;;;5109690;28;1112;-75
2022/03/10 04:37:35;;;;;;;;;;;;;;;;;;5091292;28;1466;-75
2022/03/10 04:40:00;;;;;;;;;;;;;;;;;;5071901;28;1329;-75
2022/03/10 04:42:27;;;;;;;;;;;;;;;;;;5063512;28;1956;-75
2022/03/10 04:44:53;;;;;;;;;;;;;;;;;;5081240;28;1156;-75
2022/03/10 04:47:18;;;;;;;;;;;;;;;;;;5066195;28;1129;-75
2022/03/10 04:49:44;;;;;;;;;;;;;;;;;;5089381;28;1140;-75
2022/03/10 04:52:12;;;;;;;;;;;;;;;;;;5103717;28;1218;-75
2022/03/10 04:54:37;;;;;;;;;;;;;;;;;;5086599;28;1297;-75
2022/03/10 04:57:02;;;;;;;;;;;;;;;;;;5067053;28;1253;-74
2022/03/10 04:59:34;;;;;;;;;;;;;;;;;;5081309;28;1293;-75
2022/03/10 05:01:59;;;;;;;;;;;;;;;;;;5071622;28;1985;-76
2022/03/10 05:04:25;;;;;;;;;;;;;;;;;;5085449;28;1223;-75
2022/03/10 05:06:50;;;;;;;;;;;;;;;;;;5086706;28;1292;-76
2022/03/10 05:09:16;;;;;;;;;;;;;;;;;;5067439;28;1387;-73
2022/03/10 05:11:41;;;;;;;;;;;;;;;;;;5102126;28;1241;-74
2022/03/10 05:14:10;;;;;;;;;;;;;;;;;;5086018;28;1308;-74
2022/03/10 05:16:36;;;;;;;;;;;;;;;;;;5067049;28;1494;-74
2022/03/10 05:19:01;;;;;;;;;;;;;;;;;;5086321;28;1168;-75
2022/03/10 05:21:26;;;;;;;;;;;;;;;;;;5082743;28;1910;-75
2022/03/10 05:23:52;;;;;;;;;;;;;;;;;;5104972;28;1237;-75
2022/03/10 05:26:21;;;;;;;;;;;;;;;;;;5065378;28;1220;-75
2022/03/10 05:28:47;;;;;;;;;;;;;;;;;;5065304;28;1328;-75
2022/03/10 05:31:13;;;;;;;;;;;;;;;;;;5047439;28;1199;-75
2022/03/10 05:33:38;;;;;;;;;;;;;;;;;;5049693;28;1390;-75
2022/03/10 05:36:03;;;;;;;;;;;;;;;;;;5065806;28;1326;-75
2022/03/10 05:38:28;;;;;;;;;;;;;;;;;;5048720;28;1304;-74
2022/03/10 05:40:54;;;;;;;;;;;;;;;;;;5050545;28;1274;-75
2022/03/10 05:43:19;;;;;;;;;;;;;;;;;;5062115;28;1914;-75
2022/03/10 05:45:44;;;;;;;;;;;;;;;;;;5063848;28;1106;-75
2022/03/10 05:48:19;;;;;;;;;;;;;;;;;;5077187;28;1199;-74
2022/03/10 05:50:44;;;;;;;;;;;;;;;;;;5108568;28;1111;-75
2022/03/10 05:53:09;;;;;;;;;;;;;;;;;;5072481;28;1239;-75
2022/03/10 05:55:34;;;;;;;;;;;;;;;;;;5088439;28;1409;-75
2022/03/10 05:58:00;;;;;;;;;;;;;;;;;;5107414;28;1163;-75
2022/03/10 06:00:25;;;;;;;;;;;;;;;;;;5085026;28;1419;-74
2022/03/10 06:02:50;;;;;;;;;;;;;;;;;;5091228;28;1951;-75
2022/03/10 06:05:16;;;;;;;;;;;;;;;;;;5087611;28;1175;-75
2022/03/10 06:07:42;;;;;;;;;;;;;;;;;;5089468;28;1196;-75
2022/03/10 06:10:07;;;;;;;;;;;;;;;;;;5072323;28;1249;-75
2022/03/10 06:12:33;;;;;;;;;;;;;;;;;;5065475;28;1188;-75
2022/03/10 06:15:06;;;;;;;;;;;;;;;;;;5066715;28;1236;-75
2022/03/10 06:17:31;;;;;;;;;;;;;;;;;;5083960;28;1077;-74
2022/03/10 06:19:57;;;;;;;;;;;;;;;;;;5069675;28;1206;-74
2022/03/10 06:22:24;;;;;;;;;;;;;;;;;;5086536;28;1902;-74
2022/03/10 06:24:51;;;;;;;;;;;;;;;;;;5068990;28;1197;-75
2022/03/10 06:27:22;;;;;;;;;;;;;;;;;;5066939;28;1432;-75
2022/03/10 06:29:47;;;;;;;;;;;;;;;;;;5066335;28;1191;-73
2022/03/10 06:32:18;;;;;;;;;;;;;;;;;;5087921;28;1210;-74
2022/03/10 06:34:44;;;;;;;;;;;;;;;;;;5069802;28;1194;-76
2022/03/10 06:37:09;;;;;;;;;;;;;;;;;;5105010;28;1258;-76
2022/03/10 06:39:35;;;;;;;;;;;;;;;;;;5105104;28;1159;-76
2022/03/10 06:42:03;;;;;;;;;;;;;;;;;;5090180;28;1922;-74
2022/03/10 06:44:36;;;;;;;;;;;;;;;;;;5064105;28;1244;-80
2022/03/10 06:47:05;;;;;;;;;;;;;;;;;;5051990;28;1200;-77
2022/03/10 06:49:31;;;;;;;;;;;;;;;;;;5051264;28;1105;-74
2022/03/10 06:51:56;;;;;;;;;;;;;;;;;;5105731;28;1171;-73
2022/03/10 06:54:27;;;;;;;;;;;;;;;;;;5104751;28;1214;-77
2022/03/10 06:56:53;;;;;;;;;;;;;;;;;;5074696;28;1353;-76
2022/03/10 06:59:21;;;;;;;;;;;;;;;;;;5064755;28;1207;-76
2022/03/10 07:01:46;;;;;;;;;;;;;;;;;;5068477;28;1878;-75
2022/03/10 07:04:12;;;;;;;;;;;;;;;;;;5107597;28;1206;-74
2022/03/10 07:06:38;;;;;;;;;;;;;;;;;;5103509;28;1135;-75
2022/03/10 07:09:03;;;;;;;;;;;;;;;;;;5106134;28;1393;-74
2022/03/10 07:11:28;;;;;;;;;;;;;;;;;;5103862;28;1388;-75
2022/03/10 07:13:53;;;;;;;;;;;;;;;;;;5104140;28;1198;-75
2022/03/10 07:16:20;;;;;;;;;;;;;;;;;;5084204;28;1616;-80
2022/03/10 07:18:50;;;;;;;;;;;;;;;;;;5087869;28;1301;-80
2022/03/10 07:21:29;;;;;;;;;;;;;;;;;;5071498;28;1300;-80
2022/03/10 07:23:54;;;;;;;;;;;;;;;;;;5088553;28;1361;-79
2022/03/10 07:26:27;;;;;;;;;;;;;;;;;;5074279;28;1206;-78
2022/03/10 07:28:52;;;;;;;;;;;;;;;;;;5083672;28;1123;-80
2022/03/10 07:31:25;;;;;;;;;;;;;;;;;;5065748;28;1187;-79
2022/03/10 07:33:50;;;;;;;;;;;;;;;;;;5067838;28;1146;-78
2022/03/10 07:36:17;;;;;;;;;;;;;;;;;;5052810;28;1259;-80
2022/03/10 07:38:43;;;;;;;;;;;;;;;;;;5087046;28;1254;-79
2022/03/10 07:41:08;;;;;;;;;;;;;;;;;;5071007;28;1294;-79
2022/03/10 07:43:33;;;;;;;;;;;;;;;;;;5082918;28;1968;-80
2022/03/10 07:46:00;;;;;;;;;;;;;;;;;;5068864;28;1168;-79
2022/03/10 07:48:26;;;;;;;;;;;;;;;;;;5087002;28;1533;-79
2022/03/10 07:50:51;;;;;;;;;;;;;;;;;;5085588;28;1266;-79
2022/03/10 07:53:16;;;;;;;;;;;;;;;;;;5086449;28;1214;-79
2022/03/10 07:55:42;;;;;;;;;;;;;;;;;;5094628;28;1119;-80
2022/03/10 07:58:12;;;;;;;;;;;;;;;;;;5052754;28;1235;-80
2022/03/10 08:00:38;;;;;;;;;;;;;;;;;;5046881;28;1370;-79
2022/03/10 08:03:03;;;;;;;;;;;;;;;;;;5087160;28;1889;-80
2022/03/10 08:05:29;;;;;;;;;;;;;;;;;;5048428;28;1220;-80
2022/03/10 08:07:55;;;;;;;;;;;;;;;;;;5051261;28;1307;-80
2022/03/10 08:10:24;;;;;;;;;;;;;;;;;;5049481;28;1234;-75
2022/03/10 08:12:49;;;;;;;;;;;;;;;;;;5049268;28;1197;-81
2022/03/10 08:15:15;;;;;;;;;;;;;;;;;;5076923;28;1219;-80
2022/03/10 08:17:43;;;;;;;;;;;;;;;;;;5054720;28;1216;-79
2022/03/10 08:20:09;;;;;;;;;;;;;;;;;;5051120;28;1198;-79
2022/03/10 08:22:34;;;;;;;;;;;;;;;;;;5066025;28;2036;-77
2022/03/10 08:25:00;;;;;;;;;;;;;;;;;;5051603;28;1269;-78
2022/03/10 08:27:29;;;;;;;;;;;;;;;;;;5071110;28;1187;-84
2022/03/10 08:29:54;;;;;;;;;;;;;;;;;;5076676;28;1312;-81
2022/03/10 08:32:21;;;;;;;;;;;;;;;;;;5089874;28;1251;-80
2022/03/10 08:34:46;;;;;;;;;;;;;;;;;;5086723;28;1226;-80
2022/03/10 08:37:12;;;;;;;;;;;;;;;;;;5084397;28;1227;-79
2022/03/10 08:39:37;;;;;;;;;;;;;;;;;;5049425;28;1268;-80
2022/03/10 08:42:02;;;;;;;;;;;;;;;;;;5049759;28;1985;-79
2022/03/10 08:44:29;;;;;;;;;;;;;;;;;;5048523;28;1188;-78
2022/03/10 08:46:55;;;;;;;;;;;;;;;;;;5065853;28;1251;-80
2022/03/10 08:49:20;;;;;;;;;;;;;;;;;;5067323;28;1171;-81
2022/03/10 08:51:47;;;;;;;;;;;;;;;;;;5082193;28;1159;-79
2022/03/10 08:54:13;;;;;;;;;;;;;;;;;;5086362;28;1152;-79
2022/03/10 08:56:39;;;;;;;;;;;;;;;;;;5081784;28;1060;-79
2022/03/10 08:59:04;;;;;;;;;;;;;;;;;;5084660;28;1239;-78
2022/03/10 09:01:30;;;;;;;;;;;;;;;;;;5065700;28;1136;-78
2022/03/10 09:03:56;;;;;;;;;;;;;;;;;;5050640;28;1145;-79
2022/03/10 09:06:21;;;;;;;;;;;;;;;;;;5050404;28;1288;-78
2022/03/10 09:08:48;;;;;;;;;;;;;;;;;;5060416;28;1234;-79
2022/03/10 09:11:16;;;;;;;;;;;;;;;;;;5047145;28;1337;-78
2022/03/10 09:13:48;;;;;;;;;;;;;;;;;;5058376;28;1133;-79
2022/03/10 09:16:13;;;;;;;;;;;;;;;;;;5062360;28;1088;-78
2022/03/10 09:18:39;;;;;;;;;;;;;;;;;;5065607;28;1331;-80
2022/03/10 09:21:05;;;;;;;;;;;;;;;;;;5085755;28;1231;-80
2022/03/10 09:23:31;;;;;;;;;;;;;;;;;;5087804;28;2377;-79
2022/03/10 09:25:56;;;;;;;;;;;;;;;;;;5070186;28;1211;-79
2022/03/10 09:28:21;;;;;;;;;;;;;;;;;;5066234;28;1206;-80
2022/03/10 09:30:47;;;;;;;;;;;;;;;;;;5050341;28;1492;-78
2022/03/10 09:33:12;;;;;;;;;;;;;;;;;;5069263;28;1273;-78
2022/03/10 09:35:37;;;;;;;;;;;;;;;;;;5067531;28;1219;-79
2022/03/10 09:38:02;;;;;;;;;;;;;;;;;;5082026;28;1164;-79
2022/03/10 09:40:28;;;;;;;;;;;;;;;;;;5071140;28;1186;-79
2022/03/10 09:42:53;;;;;;;;;;;;;;;;;;5084169;28;1886;-79
2022/03/10 09:45:19;;;;;;;;;;;;;;;;;;5080934;28;1159;-78
2022/03/10 09:47:44;;;;;;;;;;;;;;;;;;5070563;28;1195;-78
2022/03/10 09:50:11;;;;;;;;;;;;;;;;;;5071398;28;1172;-78
2022/03/10 09:52:36;;;;;;;;;;;;;;;;;;5069396;28;1197;-79
2022/03/10 09:55:02;;;;;;;;;;;;;;;;;;5068661;28;1207;-78
2022/03/10 09:57:28;;;;;;;;;;;;;;;;;;5066536;28;1320;-79
2022/03/10 09:59:56;;;;;;;;;;;;;;;;;;5065539;28;1420;-80
2022/03/10 10:02:21;;;;;;;;;;;;;;;;;;5069574;28;1980;-78
2022/03/10 10:04:48;;;;;;;;;;;;;;;;;;5068608;28;1215;-79
2022/03/10 10:07:14;;;;;;;;;;;;;;;;;;5069608;28;1164;-80
2022/03/10 10:09:39;;;;;;;;;;;;;;;;;;5093512;28;1268;-77
2022/03/10 10:12:05;;;;;;;;;;;;;;;;;;5089642;28;1383;-79
2022/03/10 10:14:41;;;;;;;;;;;;;;;;;;5051790;28;1195;-78
2022/03/10 10:17:07;;;;;;;;;;;;;;;;;;5087247;28;1421;-78
2022/03/10 10:19:34;;;;;;;;;;;;;;;;;;5054512;28;1362;-78
2022/03/10 10:22:15;;;;;;;;;;;;;;;;;;5068802;28;1926;-79
2022/03/10 10:24:57;;;;;;;;;;;;;;;;;;5089004;28;1091;-81
2022/03/10 10:27:32;;;;;;;;;;;;;;;;;;5071194;28;1467;-78
2022/03/10 10:29:59;;;;;;;;;;;;;;;;;;5063954;28;1195;-81
2022/03/10 10:32:32;;;;;;;;;;;;;;;;;;5070385;28;1325;-79
2022/03/10 10:35:01;;;;;;;;;;;;;;;;;;5066995;28;1276;-79
2022/03/10 10:37:26;;;;;;;;;;;;;;;;;;5052908;28;1289;-78
2022/03/10 10:39:53;;;;;;;;;;;;;;;;;;5049278;28;1465;-80
2022/03/10 10:42:18;;;;;;;;;;;;;;;;;;5070121;28;1918;-80
2022/03/10 10:44:43;;;;;;;;;;;;;;;;;;5064164;28;1292;-78
2022/03/10 10:47:08;;;;;;;;;;;;;;;;;;5087628;28;1155;-79
2022/03/10 10:49:43;;;;;;;;;;;;;;;;;;5070339;28;1168;-78
2022/03/10 10:52:11;;;;;;;;;;;;;;;;;;5083131;28;1300;-79
2022/03/10 10:54:41;;;;;;;;;;;;;;;;;;5087258;28;1235;-78
2022/03/10 10:57:06;;;;;;;;;;;;;;;;;;5067559;28;1260;-74
2022/03/10 10:59:37;;;;;;;;;;;;;;;;;;5083757;28;1304;-74
2022/03/10 11:02:06;;;;;;;;;;;;;;;;;;5086511;28;1913;-76
2022/03/10 11:04:32;;;;;;;;;;;;;;;;;;5087223;28;1338;-75
2022/03/10 11:06:57;;;;;;;;;;;;;;;;;;5077792;28;1143;-75
2022/03/10 11:09:23;;;;;;;;;;;;;;;;;;5080417;28;1187;-79
2022/03/10 11:11:49;;;;;;;;;;;;;;;;;;5073466;28;1145;-77
2022/03/10 11:14:15;;;;;;;;;;;;;;;;;;5089326;28;1124;-78
2022/03/10 11:16:42;;;;;;;;;;;;;;;;;;5067041;28;1325;-76
2022/03/10 11:19:10;;;;;;;;;;;;;;;;;;5086873;28;1270;-77
2022/03/10 11:21:35;;;;;;;;;;;;;;;;;;5084445;28;1203;-78
2022/03/10 11:24:19;;;;;;;;;;;;;;;;;;5071150;28;1976;-78
2022/03/10 11:26:54;;;;;;;;;;;;;;;;;;5064264;28;1489;-79
2022/03/10 11:29:21;;;;;;;;;;;;;;;;;;5066775;28;1285;-77
2022/03/10 11:31:47;;;;;;;;;;;;;;;;;;5063220;28;1283;-77
2022/03/10 11:34:32;;;;;;;;;;;;;;;;;;5066780;28;1307;-78
2022/03/10 11:37:08;;;;;;;;;;;;;;;;;;5068139;28;1211;-78
2022/03/10 11:39:52;;;;;;;;;;;;;;;;;;5085389;28;1222;-77
2022/03/10 11:42:28;;;;;;;;;;;;;;;;;;5074221;28;1889;-77
2022/03/10 11:45:13;;;;;;;;;;;;;;;;;;5064446;28;1235;-77
2022/03/10 11:47:39;;;;;;;;;;;;;;;;;;5068832;28;1199;-79
2022/03/10 11:50:23;;;;;;;;;;;;;;;;;;5055895;28;1379;-76
2022/03/10 11:53:02;;;;;;;;;;;;;;;;;;5086265;28;1166;-76
2022/03/10 11:55:38;;;;;;;;;;;;;;;;;;5067263;28;1326;-78
2022/03/10 11:58:10;;;;;;;;;;;;;;;;;;5077312;28;1238;-77
2022/03/10 12:00:35;;;;;;;;;;;;;;;;;;5084000;28;1395;-78
2022/03/10 12:03:01;;;;;;;;;;;;;;;;;;5105172;28;1957;-77
2022/03/10 12:05:46;;;;;;;;;;;;;;;;;;5071247;28;1264;-77
2022/03/10 12:08:17;;;;;;;;;;;;;;;;;;5087558;28;1423;-78
2022/03/10 12:10:43;;;;;;;;;;;;;;;;;;5087017;28;1268;-79
2022/03/10 12:13:29;;;;;;;;;;;;;;;;;;5084321;28;1237;-77
2022/03/10 12:15:56;;;;;;;;;;;;;;;;;;5086631;28;1319;-78
2022/03/10 12:18:25;;;;;;;;;;;;;;;;;;5104856;28;1159;-77
2022/03/10 12:20:53;;;;;;;;;;;;;;;;;;5104802;28;1156;-77
2022/03/10 12:23:19;;;;;;;;;;;;;;;;;;5080313;28;1910;-78
2022/03/10 12:25:47;;;;;;;;;;;;;;;;;;5065258;28;1353;-80
2022/03/10 12:28:25;;;;;;;;;;;;;;;;;;5063071;28;1210;-77
2022/03/10 12:30:59;;;;;;;;;;;;;;;;;;5081471;28;1290;-77
2022/03/10 12:33:24;;;;;;;;;;;;;;;;;;5102626;28;1373;-78
2022/03/10 12:35:54;;;;;;;;;;;;;;;;;;5067834;28;1264;-77
2022/03/10 12:38:32;;;;;;;;;;;;;;;;;;5086146;28;1292;-78
2022/03/10 12:40:58;;;;;;;;;;;;;;;;;;5084238;28;1262;-78
2022/03/10 12:43:25;;;;;;;;;;;;;;;;;;5083907;28;1901;-77
2022/03/10 12:45:52;;;;;;;;;;;;;;;;;;5101308;28;1023;-78
2022/03/10 12:48:40;;;;;;;;;;;;;;;;;;5104853;28;1147;-78
2022/03/10 12:51:19;;;;;;;;;;;;;;;;;;5092631;28;1230;-78
2022/03/10 12:53:44;;;;;;;;;;;;;;;;;;5091270;28;1175;-77
2022/03/10 12:56:09;;;;;;;;;;;;;;;;;;5063352;28;1341;-76
2022/03/10 12:58:34;;;;;;;;;;;;;;;;;;5083196;28;1160;-78
2022/03/10 13:01:07;;;;;;;;;;;;;;;;;;5056499;28;1203;-79
2022/03/10 13:03:36;;;;;;;;;;;;;;;;;;5085801;28;1955;-77
2022/03/10 13:06:02;;;;;;;;;;;;;;;;;;5049374;28;1382;-78
2022/03/10 13:08:28;;;;;;;;;;;;;;;;;;5063545;28;1383;-78
2022/03/10 13:10:59;;;;;;;;;;;;;;;;;;5063231;28;1192;-77
2022/03/10 13:13:29;;;;;;;;;;;;;;;;;;5058370;28;1235;-79
2022/03/10 13:15:58;;;;;;;;;;;;;;;;;;5041886;28;1204;-79
2022/03/10 13:18:23;;;;;;;;;;;;;;;;;;5068306;28;1168;-78
2022/03/10 13:20:49;;;;;;;;;;;;;;;;;;5067056;28;1153;-78
2022/03/10 13:23:15;;;;;;;;;;;;;;;;;;5082783;28;1909;-78
2022/03/10 13:25:43;;;;;;;;;;;;;;;;;;5085056;28;1204;-79
2022/03/10 13:28:18;;;;;;;;;;;;;;;;;;5080478;28;1132;-75
2022/03/10 13:30:43;;;;;;;;;;;;;;;;;;5072187;28;1308;-73
2022/03/10 13:33:10;;;;;;;;;;;;;;;;;;5060730;28;1776;-75
2022/03/10 13:35:37;;;;;;;;;;;;;;;;;;5071663;28;1425;-76
2022/03/10 13:38:02;;;;;;;;;;;;;;;;;;5074733;28;1226;-78
2022/03/10 13:40:30;;;;;;;;;;;;;;;;;;5068889;28;1136;-77
2022/03/10 13:42:56;;;;;;;;;;;;;;;;;;5079754;28;1893;-78
2022/03/10 13:45:22;;;;;;;;;;;;;;;;;;5061189;28;1166;-76
2022/03/10 13:47:48;;;;;;;;;;;;;;;;;;5071403;28;1164;-78
2022/03/10 13:50:16;;;;;;;;;;;;;;;;;;5067324;28;1202;-74
2022/03/10 13:52:41;;;;;;;;;;;;;;;;;;5078353;28;1089;-77
2022/03/10 13:55:13;;;;;;;;;;;;;;;;;;5081515;28;1223;-77
2022/03/10 13:57:38;;;;;;;;;;;;;;;;;;5077437;28;1264;-76
2022/03/10 14:00:07;;;;;;;;;;;;;;;;;;5058459;28;1220;-77
2022/03/10 14:02:33;;;;;;;;;;;;;;;;;;5064315;28;1886;-76
2022/03/10 14:04:58;;;;;;;;;;;;;;;;;;5079334;28;1284;-75
2022/03/10 14:07:23;;;;;;;;;;;;;;;;;;5078207;28;1281;-75
2022/03/10 14:09:49;;;;;;;;;;;;;;;;;;5065507;28;1400;-77
2022/03/10 14:12:16;;;;;;;;;;;;;;;;;;5044293;28;1487;-74
2022/03/10 14:14:43;;;;;;;;;;;;;;;;;;5062482;28;1367;-75
2022/03/10 14:17:08;;;;;;;;;;;;;;;;;;5083739;28;1211;-75
2022/03/10 14:19:34;;;;;;;;;;;;;;;;;;5085753;28;1196;-75
2022/03/10 14:22:03;;;;;;;;;;;;;;;;;;5083652;28;1910;-75
2022/03/10 14:24:38;;;;;;;;;;;;;;;;;;5085709;28;1229;-76
2022/03/10 14:27:22;;;;;;;;;;;;;;;;;;5080314;28;1084;-75
2022/03/10 14:29:59;;;;;;;;;;;;;;;;;;5080690;28;1244;-75
2022/03/10 14:32:25;;;;;;;;;;;;;;;;;;5085465;28;1297;-74
2022/03/10 14:34:51;;;;;;;;;;;;;;;;;;5084478;28;1176;-77
2022/03/10 14:37:17;;;;;;;;;;;;;;;;;;5066901;28;1285;-75
2022/03/10 14:39:42;;;;;;;;;;;;;;;;;;5088970;28;1195;-75
2022/03/10 14:42:07;;;;;;;;;;;;;;;;;;5082194;28;1885;-75
2022/03/10 14:44:36;;;;;;;;;;;;;;;;;;5081380;28;1188;-76
2022/03/10 14:47:01;;;;;;;;;;;;;;;;;;5082158;28;1314;-76
2022/03/10 14:49:26;;;;;;;;;;;;;;;;;;5070619;28;1200;-75
2022/03/10 14:51:52;;;;;;;;;;;;;;;;;;5086520;28;1324;-75
2022/03/10 14:54:18;;;;;;;;;;;;;;;;;;5084510;28;1433;-76
2022/03/10 14:56:43;;;;;;;;;;;;;;;;;;5082539;28;1239;-76
2022/03/10 14:59:09;;;;;;;;;;;;;;;;;;5081333;28;1190;-76
2022/03/10 15:01:34;;;;;;;;;;;;;;;;;;5084609;28;1273;-74
2022/03/10 15:04:01;;;;;;;;;;;;;;;;;;5086478;28;1969;-75
2022/03/10 15:06:26;;;;;;;;;;;;;;;;;;5072626;28;1332;-76
2022/03/10 15:08:52;;;;;;;;;;;;;;;;;;5078339;28;1329;-76
2022/03/10 15:11:26;;;;;;;;;;;;;;;;;;5086052;28;1112;-75
2022/03/10 15:13:52;;;;;;;;;;;;;;;;;;5068755;28;1397;-75
2022/03/10 15:16:19;;;;;;;;;;;;;;;;;;5084687;28;1180;-75
2022/03/10 15:18:44;;;;;;;;;;;;;;;;;;5069145;28;1330;-75
2022/03/10 15:21:11;;;;;;;;;;;;;;;;;;5067087;28;1180;-75
2022/03/10 15:23:37;;;;;;;;;;;;;;;;;;5068970;28;1987;-75
2022/03/10 15:26:04;;;;;;;;;;;;;;;;;;5084070;28;1160;-74
2022/03/10 15:28:30;;;;;;;;;;;;;;;;;;5067654;28;1139;-75
2022/03/10 15:30:55;;;;;;;;;;;;;;;;;;5104901;28;1171;-76
2022/03/10 15:33:20;;;;;;;;;;;;;;;;;;5086663;28;1593;-76
2022/03/10 15:35:47;;;;;;;;;;;;;;;;;;5087346;28;1373;-74
2022/03/10 15:38:13;;;;;;;;;;;;;;;;;;5103974;28;1076;-75
2022/03/10 15:40:38;;;;;;;;;;;;;;;;;;5088277;28;1136;-76
2022/03/10 15:43:06;;;;;;;;;;;;;;;;;;5102717;28;1970;-75
2022/03/10 15:45:32;;;;;;;;;;;;;;;;;;5082336;28;1240;-75
2022/03/10 15:47:59;;;;;;;;;;;;;;;;;;5087698;28;1326;-76
2022/03/10 15:50:24;;;;;;;;;;;;;;;;;;5086558;28;1198;-76
2022/03/10 15:52:51;;;;;;;;;;;;;;;;;;5072223;28;1171;-76
2022/03/10 15:55:17;;;;;;;;;;;;;;;;;;5095218;28;1152;-75
2022/03/10 15:57:43;;;;;;;;;;;;;;;;;;5085575;28;1222;-75
2022/03/10 16:00:10;;;;;;;;;;;;;;;;;;5081964;28;1218;-75
2022/03/10 16:02:37;;;;;;;;;;;;;;;;;;5071045;28;1889;-75
2022/03/10 16:05:03;;;;;;;;;;;;;;;;;;5088530;28;1064;-75
2022/03/10 16:07:28;;;;;;;;;;;;;;;;;;5088690;28;1329;-74
2022/03/10 16:09:54;;;;;;;;;;;;;;;;;;5087621;28;1374;-75
2022/03/10 16:12:19;;;;;;;;;;;;;;;;;;5085478;28;1257;-74
2022/03/10 16:14:45;;;;;;;;;;;;;;;;;;5083719;28;1266;-75
2022/03/10 16:17:13;;;;;;;;;;;;;;;;;;5087840;28;1293;-75
2022/03/10 16:19:39;;;;;;;;;;;;;;;;;;5087781;28;1174;-75
2022/03/10 16:22:05;;;;;;;;;;;;;;;;;;5055882;28;1980;-75
2022/03/10 16:24:30;;;;;;;;;;;;;;;;;;5063572;28;1468;-74
2022/03/10 16:26:57;;;;;;;;;;;;;;;;;;5048236;28;1224;-75
2022/03/10 16:29:24;;;;;;;;;;;;;;;;;;5064131;28;1198;-76
2022/03/10 16:31:50;;;;;;;;;;;;;;;;;;5051493;28;1184;-77
2022/03/10 16:34:16;;;;;;;;;;;;;;;;;;5069741;28;1298;-76
2022/03/10 16:36:42;;;;;;;;;;;;;;;;;;5058199;28;1168;-72
2022/03/10 16:39:10;;;;;;;;;;;;;;;;;;5062027;28;1120;-73
2022/03/10 16:41:36;;;;;;;;;;;;;;;;;;5077084;28;1166;-72
2022/03/10 16:44:03;;;;;;;;;;;;;;;;;;5079602;28;1980;-73
2022/03/10 16:46:29;;;;;;;;;;;;;;;;;;5057763;28;1371;-71
2022/03/10 16:48:55;;;;;;;;;;;;;;;;;;5077340;28;1212;-72
2022/03/10 16:51:20;;;;;;;;;;;;;;;;;;5044287;28;1181;-72
2022/03/10 16:53:47;;;;;;;;;;;;;;;;;;5082365;28;1219;-73
2022/03/10 16:56:13;;;;;;;;;;;;;;;;;;5058214;28;1215;-73
2022/03/10 16:58:40;;;;;;;;;;;;;;;;;;5057978;28;1212;-72
2022/03/10 17:01:09;;;;;;;;;;;;;;;;;;5075654;28;1128;-73
2022/03/10 17:03:34;;;;;;;;;;;;;;;;;;5079683;28;1960;-72
2022/03/10 17:06:00;;;;;;;;;;;;;;;;;;5100809;28;1195;-72
2022/03/10 17:08:25;;;;;;;;;;;;;;;;;;5098087;28;1289;-73